createdAt,value
2023-03-26T00:01:17.312Z,12.83
2023-03-26T00:03:53.498Z,13.10
2023-03-26T00:06:29.026Z,13.01
2023-03-26T00:08:57.556Z,12.99
2023-03-26T00:11:27.851Z,12.64
2023-03-26T00:13:57.726Z,12.93
2023-03-26T00:16:28.229Z,12.78
2023-03-26T00:18:55.741Z,12.93
2023-03-26T00:21:27.724Z,12.93
2023-03-26T00:23:56.266Z,12.52
2023-03-26T00:26:24.020Z,12.89
2023-03-26T00:28:50.997Z,12.65
2023-03-26T00:31:18.114Z,12.78
2023-03-26T00:33:44.828Z,13.15
2023-03-26T00:36:15.274Z,12.65
2023-03-26T00:38:43.195Z,12.89
2023-03-26T00:41:25.009Z,12.56
2023-03-26T00:43:57.494Z,12.82
2023-03-26T00:46:26.238Z,12.99
2023-03-26T00:48:53.652Z,13.07
2023-03-26T00:51:21.647Z,12.76
2023-03-26T00:53:49.993Z,12.91
2023-03-26T00:56:17.705Z,13.11
2023-03-26T00:58:46.060Z,12.30
2023-03-26T01:01:16.366Z,12.72
2023-03-26T01:03:53.628Z,12.46
2023-03-26T01:06:35.914Z,12.79
2023-03-26T01:09:18.753Z,12.56
2023-03-26T01:11:48.748Z,12.44
2023-03-26T01:14:19.187Z,12.66
2023-03-26T01:16:52.151Z,12.67
2023-03-26T01:19:31.646Z,12.90
2023-03-26T01:21:59.065Z,12.88
2023-03-26T01:24:26.256Z,12.61
2023-03-26T01:27:43.365Z,12.90
2023-03-26T01:30:17.151Z,12.76
2023-03-26T01:32:51.096Z,12.74
2023-03-26T01:35:30.772Z,12.56
2023-03-26T01:38:23.045Z,12.64
2023-03-26T01:41:19.636Z,12.48
2023-03-26T01:43:54.197Z,12.47
2023-03-26T01:46:23.818Z,12.51
2023-03-26T01:48:51.893Z,12.39
2023-03-26T01:51:44.967Z,11.86
2023-03-26T01:54:17.149Z,12.11
2023-03-26T01:57:05.952Z,12.22
2023-03-26T01:59:47.664Z,12.19
2023-03-26T02:02:26.817Z,11.90
2023-03-26T02:05:02.723Z,12.05
2023-03-26T02:07:51.047Z,12.10
2023-03-26T02:10:25.669Z,11.57
2023-03-26T02:12:53.164Z,12.17
2023-03-26T02:15:20.948Z,11.96
2023-03-26T02:17:49.250Z,11.78
2023-03-26T02:20:18.855Z,12.14
2023-03-26T02:22:47.256Z,12.05
2023-03-26T02:25:20.465Z,11.64
2023-03-26T02:27:50.332Z,11.91
2023-03-26T02:30:21.648Z,11.91
2023-03-26T02:32:52.336Z,11.94
2023-03-26T02:35:21.917Z,11.87
2023-03-26T02:37:52.668Z,11.93
2023-03-26T02:40:22.400Z,11.88
2023-03-26T02:42:50.544Z,12.39
2023-03-26T02:45:17.431Z,12.02
2023-03-26T02:48:20.415Z,11.79
2023-03-26T02:50:54.658Z,11.69
2023-03-26T02:53:41.278Z,11.83
2023-03-26T02:56:37.299Z,11.78
2023-03-26T02:59:17.841Z,11.87
2023-03-26T03:01:48.029Z,11.80
2023-03-26T03:04:17.962Z,12.24
2023-03-26T03:06:45.497Z,12.11
2023-03-26T03:09:12.955Z,11.95
2023-03-26T03:12:08.866Z,11.71
2023-03-26T03:14:35.780Z,11.61
2023-03-26T03:17:02.469Z,11.30
2023-03-26T03:19:30.946Z,11.34
2023-03-26T03:21:57.869Z,11.21
2023-03-26T03:24:24.568Z,11.56
2023-03-26T03:26:55.015Z,11.38
2023-03-26T03:29:33.216Z,11.56
2023-03-26T03:32:22.473Z,11.46
2023-03-26T03:34:51.502Z,11.25
2023-03-26T03:37:19.442Z,11.36
2023-03-26T03:39:54.213Z,11.41
2023-03-26T03:42:22.919Z,11.10
2023-03-26T03:44:54.623Z,11.63
2023-03-26T03:47:39.979Z,11.29
2023-03-26T03:50:07.860Z,11.16
2023-03-26T03:52:36.025Z,11.37
2023-03-26T03:55:02.967Z,11.26
2023-03-26T03:57:43.194Z,11.58
2023-03-26T04:00:15.552Z,11.57
2023-03-26T04:02:43.081Z,11.77
2023-03-26T04:05:11.714Z,11.60
2023-03-26T04:07:45.224Z,11.90
2023-03-26T04:10:27.018Z,11.40
2023-03-26T04:13:29.361Z,11.51
2023-03-26T04:16:10.398Z,11.11
2023-03-26T04:18:38.238Z,11.24
2023-03-26T04:21:12.711Z,11.57
2023-03-26T04:23:39.588Z,11.59
2023-03-26T04:26:20.185Z,11.80
2023-03-26T04:29:18.198Z,11.60
2023-03-26T04:31:47.193Z,11.45
2023-03-26T04:34:26.108Z,11.12
2023-03-26T04:37:02.924Z,11.45
2023-03-26T04:39:34.111Z,11.02
2023-03-26T04:42:37.771Z,11.24
2023-03-26T04:45:38.482Z,11.05
2023-03-26T04:48:07.315Z,11.10
2023-03-26T04:50:34.500Z,11.17
2023-03-26T04:53:02.422Z,11.32
2023-03-26T04:56:26.415Z,10.72
2023-03-26T04:59:26.275Z,11.07
2023-03-26T05:01:55.286Z,10.84
2023-03-26T05:04:29.467Z,10.98
2023-03-26T05:06:58.442Z,10.73
2023-03-26T05:09:38.286Z,10.72
2023-03-26T05:12:13.519Z,10.53
2023-03-26T05:15:03.582Z,11.00
2023-03-26T05:17:55.452Z,10.76
2023-03-26T05:20:36.917Z,11.06
2023-03-26T05:23:07.423Z,10.85
2023-03-26T05:25:41.248Z,10.82
2023-03-26T05:28:15.486Z,11.04
2023-03-26T05:30:53.831Z,10.88
2023-03-26T05:33:22.779Z,10.99
2023-03-26T05:36:13.313Z,11.23
2023-03-26T05:38:47.331Z,11.24
2023-03-26T05:41:18.366Z,10.67
2023-03-26T05:43:47.858Z,10.32
2023-03-26T05:46:27.259Z,11.25
2023-03-26T05:48:54.087Z,10.78
2023-03-26T05:51:23.458Z,10.91
2023-03-26T05:54:00.316Z,11.33
2023-03-26T05:56:32.759Z,10.86
2023-03-26T05:59:25.658Z,10.97
2023-03-26T06:02:12.531Z,10.74
2023-03-26T06:04:40.856Z,10.62
2023-03-26T06:07:27.115Z,11.00
2023-03-26T06:10:14.600Z,10.96
2023-03-26T06:12:45.764Z,11.06
2023-03-26T06:15:12.912Z,11.17
2023-03-26T06:17:59.814Z,11.10
2023-03-26T06:20:47.980Z,10.89
2023-03-26T06:23:28.198Z,11.02
2023-03-26T06:26:15.515Z,11.47
2023-03-26T06:29:14.776Z,11.20
2023-03-26T06:31:58.124Z,11.19
2023-03-26T06:34:35.867Z,11.49
2023-03-26T06:37:02.546Z,11.44
2023-03-26T06:39:30.219Z,11.39
2023-03-26T06:42:17.413Z,11.22
2023-03-26T06:44:57.353Z,11.53
2023-03-26T06:47:47.456Z,11.36
2023-03-26T06:50:43.857Z,11.54
2023-03-26T06:53:26.648Z,11.31
2023-03-26T06:56:08.883Z,11.29
2023-03-26T06:59:14.104Z,11.41
2023-03-26T07:01:59.390Z,11.59
2023-03-26T07:04:44.466Z,11.60
2023-03-26T07:07:29.414Z,11.38
2023-03-26T07:10:15.102Z,12.00
2023-03-26T07:13:11.084Z,11.81
2023-03-26T07:15:56.446Z,11.92
2023-03-26T07:18:23.106Z,11.83
2023-03-26T07:20:52.489Z,11.84
2023-03-26T07:23:21.352Z,11.64
2023-03-26T07:25:57.240Z,11.49
2023-03-26T07:29:04.436Z,11.53
2023-03-26T07:32:18.876Z,11.79
2023-03-26T07:35:23.413Z,11.52
2023-03-26T07:38:41.254Z,11.56
2023-03-26T07:41:51.083Z,11.75
2023-03-26T07:45:03.239Z,11.77
2023-03-26T07:47:53.881Z,11.75
2023-03-26T07:50:31.561Z,11.96
2023-03-26T07:53:21.624Z,11.80
2023-03-26T07:56:15.986Z,11.98
2023-03-26T07:59:19.368Z,12.02
2023-03-26T08:02:34.464Z,11.86
2023-03-26T08:05:57.917Z,12.28
2023-03-26T08:09:06.769Z,12.05
2023-03-26T08:11:54.228Z,12.28
2023-03-26T08:14:36.420Z,12.65
2023-03-26T08:17:14.161Z,12.39
2023-03-26T08:19:49.106Z,12.48
2023-03-26T08:22:56.644Z,13.21
2023-03-26T08:25:35.125Z,12.91
2023-03-26T08:28:27.851Z,12.90
2023-03-26T08:30:55.221Z,12.81
2023-03-26T08:33:25.907Z,13.00
2023-03-26T08:35:52.947Z,12.84
2023-03-26T08:38:20.953Z,13.31
2023-03-26T08:43:51.566Z,13.13
2023-03-26T08:46:38.868Z,13.23
2023-03-26T08:49:46.208Z,12.92
2023-03-26T08:53:03.229Z,13.98
2023-03-26T08:55:38.240Z,14.91
2023-03-26T08:58:33.213Z,15.20
2023-03-26T09:01:30.966Z,15.41
2023-03-26T09:04:40.335Z,13.75
2023-03-26T09:07:40.858Z,14.54
2023-03-26T09:10:07.455Z,14.66
2023-03-26T09:13:29.413Z,15.16
2023-03-26T09:16:10.033Z,15.75
2023-03-26T09:19:02.396Z,15.66
2023-03-26T09:21:44.040Z,15.30
2023-03-26T09:24:24.341Z,14.71
2023-03-26T09:26:59.839Z,15.44
2023-03-26T09:29:54.316Z,15.07
2023-03-26T09:32:59.774Z,16.26
2023-03-26T09:36:08.737Z,17.26
2023-03-26T09:38:57.548Z,16.71
2023-03-26T09:41:48.205Z,16.45
2023-03-26T09:44:44.222Z,15.77
2023-03-26T09:47:19.819Z,16.33
2023-03-26T09:50:14.214Z,16.82
2023-03-26T09:53:07.566Z,16.81
2023-03-26T09:55:51.100Z,15.81
2023-03-26T09:58:41.340Z,16.64
2023-03-26T10:01:25.211Z,17.78
2023-03-26T10:04:03.891Z,17.40
2023-03-26T10:06:37.177Z,16.75
2023-03-26T10:09:28.428Z,16.20
2023-03-26T10:12:20.604Z,16.56
2023-03-26T10:15:04.375Z,17.26
2023-03-26T10:17:46.717Z,16.95
2023-03-26T10:20:36.225Z,17.01
2023-03-26T10:23:18.561Z,16.70
2023-03-26T10:25:47.845Z,16.14
2023-03-26T10:28:20.288Z,16.23
2023-03-26T10:31:29.093Z,15.91
2023-03-26T10:34:28.728Z,15.37
2023-03-26T10:37:32.486Z,16.56
2023-03-26T10:40:32.458Z,17.10
2023-03-26T10:43:31.382Z,15.39
2023-03-26T10:46:24.921Z,15.26
2023-03-26T10:49:16.205Z,15.37
2023-03-26T10:51:50.452Z,14.94
2023-03-26T10:54:28.902Z,15.23
2023-03-26T10:56:56.670Z,15.96
2023-03-26T10:59:27.070Z,16.62
2023-03-26T11:02:01.337Z,16.72
2023-03-26T11:04:46.373Z,16.64
2023-03-26T11:07:31.694Z,16.60
2023-03-26T11:10:11.879Z,16.40
2023-03-26T11:13:06.322Z,16.57
2023-03-26T11:15:35.897Z,16.82
2023-03-26T11:18:18.922Z,16.33
2023-03-26T11:20:54.770Z,16.19
2023-03-26T11:24:06.049Z,17.19
2023-03-26T11:27:14.902Z,16.80
2023-03-26T11:30:35.682Z,17.05
2023-03-26T11:33:06.826Z,17.31
2023-03-26T11:35:42.714Z,17.46
2023-03-26T11:38:23.386Z,16.86
2023-03-26T11:40:54.339Z,16.86
2023-03-26T11:43:39.859Z,16.89
2023-03-26T11:46:12.213Z,17.46
2023-03-26T11:48:45.059Z,17.38
2023-03-26T11:51:37.658Z,16.69
2023-03-26T11:54:07.843Z,16.54
2023-03-26T11:57:04.389Z,16.36
2023-03-26T11:59:56.511Z,16.48
2023-03-26T12:02:34.043Z,16.21
2023-03-26T12:05:24.968Z,16.51
2023-03-26T12:07:59.854Z,16.43
2023-03-26T12:10:37.713Z,16.87
2023-03-26T12:13:21.215Z,16.77
2023-03-26T12:15:48.215Z,16.64
2023-03-26T12:18:26.393Z,16.08
2023-03-26T12:21:22.678Z,15.70
2023-03-26T12:24:02.529Z,16.06
2023-03-26T12:26:41.690Z,16.61
2023-03-26T12:29:10.454Z,16.75
2023-03-26T12:31:46.890Z,16.93
2023-03-26T12:34:19.397Z,16.79
2023-03-26T12:36:52.330Z,15.74
2023-03-26T12:40:09.973Z,16.15
2023-03-26T12:44:46.779Z,16.82
2023-03-26T12:45:21.748Z,17.09
2023-03-26T12:47:58.926Z,16.75
2023-03-26T12:50:59.261Z,16.60
2023-03-26T12:53:50.536Z,16.40
2023-03-26T12:56:37.005Z,16.77
2023-03-26T12:59:09.419Z,16.73
2023-03-26T13:01:54.633Z,16.54
2023-03-26T13:04:24.240Z,15.71
2023-03-26T13:07:06.535Z,16.09
2023-03-26T13:10:16.106Z,16.04
2023-03-26T13:13:05.080Z,16.51
2023-03-26T13:15:37.010Z,16.66
2023-03-26T13:18:23.261Z,16.27
2023-03-26T13:21:00.570Z,16.54
2023-03-26T13:23:46.045Z,16.70
2023-03-26T13:26:12.621Z,16.26
2023-03-26T13:28:48.813Z,16.63
2023-03-26T13:31:21.829Z,16.19
2023-03-26T13:34:34.047Z,15.40
2023-03-26T13:37:04.456Z,15.68
2023-03-26T13:39:51.671Z,15.70
2023-03-26T13:42:21.827Z,15.71
2023-03-26T13:45:04.532Z,15.94
2023-03-26T13:47:36.773Z,16.23
2023-03-26T13:50:09.853Z,15.91
2023-03-26T13:52:55.987Z,15.27
2023-03-26T13:55:43.491Z,15.41
2023-03-26T13:58:34.636Z,15.26
2023-03-26T14:01:18.246Z,14.86
2023-03-26T14:03:58.048Z,15.68
2023-03-26T14:06:57.574Z,15.14
2023-03-26T14:09:31.808Z,15.39
2023-03-26T14:12:32.109Z,15.21
2023-03-26T14:15:05.852Z,15.57
2023-03-26T14:17:47.452Z,15.67
2023-03-26T14:20:25.549Z,15.57
2023-03-26T14:23:14.697Z,15.51
2023-03-26T14:26:06.751Z,15.36
2023-03-26T14:28:55.117Z,15.63
2023-03-26T14:31:34.230Z,15.57
2023-03-26T14:34:34.309Z,15.18
2023-03-26T14:37:06.087Z,15.29
2023-03-26T14:39:44.171Z,15.08
2023-03-26T14:42:31.952Z,14.90
2023-03-26T14:45:23.413Z,15.52
2023-03-26T14:48:17.667Z,15.54
2023-03-26T14:51:01.400Z,15.37
2023-03-26T14:53:33.446Z,15.02
2023-03-26T14:56:15.678Z,15.42
2023-03-26T14:59:03.508Z,15.53
2023-03-26T15:02:07.410Z,15.19
2023-03-26T15:05:08.313Z,15.06
2023-03-26T15:08:05.765Z,14.78
2023-03-26T15:10:45.354Z,14.81
2023-03-26T15:13:43.085Z,14.71
2023-03-26T15:16:21.030Z,14.75
2023-03-26T15:19:09.417Z,15.25
2023-03-26T15:21:45.231Z,14.82
2023-03-26T15:24:17.907Z,15.04
2023-03-26T15:26:50.117Z,15.32
2023-03-26T15:29:45.798Z,15.05
2023-03-26T15:32:45.773Z,15.05
2023-03-26T15:35:21.371Z,15.10
2023-03-26T15:37:54.264Z,15.25
2023-03-26T15:40:43.000Z,15.02
2023-03-26T15:43:12.949Z,15.32
2023-03-26T15:46:07.395Z,14.72
2023-03-26T15:49:00.117Z,15.11
2023-03-26T15:52:03.834Z,14.71
2023-03-26T15:54:37.065Z,15.03
2023-03-26T15:57:16.654Z,14.66
2023-03-26T16:00:22.571Z,14.61
2023-03-26T16:02:55.353Z,14.49
2023-03-26T16:05:40.057Z,14.71
2023-03-26T16:08:14.762Z,14.12
2023-03-26T16:11:00.333Z,13.79
2023-03-26T16:13:34.855Z,13.84
2023-03-26T16:16:04.279Z,13.93
2023-03-26T16:18:37.729Z,14.18
2023-03-26T16:21:31.466Z,14.13
2023-03-26T16:24:02.166Z,13.55
2023-03-26T16:26:31.721Z,13.61
2023-03-26T16:29:28.002Z,13.83
2023-03-26T16:32:09.808Z,13.77
2023-03-26T16:34:59.711Z,13.60
2023-03-26T16:37:33.645Z,13.52
2023-03-26T16:40:18.683Z,13.60
2023-03-26T16:43:16.359Z,13.34
2023-03-26T16:46:20.384Z,13.57
2023-03-26T16:48:47.048Z,13.41
2023-03-26T16:51:42.237Z,13.24
2023-03-26T16:54:47.886Z,13.34
2023-03-26T16:57:23.753Z,13.35
2023-03-26T17:00:24.575Z,13.61
2023-03-26T17:03:37.664Z,13.24
2023-03-26T17:06:45.708Z,13.12
2023-03-26T17:09:24.706Z,13.32
2023-03-26T17:12:02.763Z,13.26
2023-03-26T17:15:16.404Z,13.26
2023-03-26T17:18:07.021Z,13.40
2023-03-26T17:20:39.452Z,13.23
2023-03-26T17:23:14.613Z,13.29
2023-03-26T17:25:54.345Z,13.35
2023-03-26T17:28:51.577Z,13.12
2023-03-26T17:31:56.933Z,13.10
2023-03-26T17:34:32.620Z,13.07
2023-03-26T17:37:00.922Z,13.10
2023-03-26T17:39:39.703Z,13.01
2023-03-26T17:42:25.632Z,12.87
2023-03-26T17:45:01.227Z,12.87
2023-03-26T17:47:42.240Z,13.10
2023-03-26T17:50:19.693Z,13.23
2023-03-26T17:52:55.212Z,12.97
2023-03-26T17:55:31.316Z,12.82
2023-03-26T17:58:19.236Z,12.84
2023-03-26T18:00:51.052Z,12.77
2023-03-26T18:03:30.844Z,12.92
2023-03-26T18:06:07.232Z,13.20
2023-03-26T18:08:41.488Z,12.67
2023-03-26T18:11:17.003Z,12.60
2023-03-26T18:13:52.548Z,12.90
2023-03-26T18:16:39.084Z,12.55
2023-03-26T18:19:22.025Z,12.62
2023-03-26T18:21:51.945Z,12.52
2023-03-26T18:24:27.607Z,12.87
2023-03-26T18:26:58.498Z,12.67
2023-03-26T18:29:35.272Z,12.71
2023-03-26T18:32:11.447Z,12.79
2023-03-26T18:34:41.451Z,12.95
2023-03-26T18:37:17.661Z,12.75
2023-03-26T18:39:57.617Z,13.12
2023-03-26T18:42:25.335Z,12.64
2023-03-26T18:44:53.934Z,12.56
2023-03-26T18:47:29.424Z,12.87
2023-03-26T18:49:58.127Z,13.02
2023-03-26T18:52:27.914Z,12.87
2023-03-26T18:54:56.698Z,12.78
2023-03-26T18:57:26.114Z,12.67
2023-03-26T18:59:55.866Z,12.50
2023-03-26T19:02:24.787Z,12.84
2023-03-26T19:04:54.324Z,12.83
2023-03-26T19:07:26.492Z,12.64
2023-03-26T19:09:56.377Z,12.80
2023-03-26T19:12:28.876Z,12.95
2023-03-26T19:15:02.317Z,12.51
2023-03-26T19:17:34.443Z,12.69
2023-03-26T19:20:01.669Z,12.56
2023-03-26T19:22:30.427Z,12.60
2023-03-26T19:25:01.281Z,12.81
2023-03-26T19:27:28.330Z,12.79
2023-03-26T19:29:55.190Z,12.68
2023-03-26T19:32:32.387Z,12.41
2023-03-26T19:35:01.199Z,12.93
2023-03-26T19:37:30.714Z,12.50
2023-03-26T19:40:07.156Z,12.51
2023-03-26T19:42:42.884Z,12.53
2023-03-26T19:45:17.765Z,12.59
2023-03-26T19:47:50.409Z,12.22
2023-03-26T19:50:29.345Z,12.27
2023-03-26T19:53:17.013Z,12.16
2023-03-26T19:55:58.969Z,12.32
2023-03-26T19:58:26.498Z,12.28
2023-03-26T20:00:55.649Z,11.95
2023-03-26T20:03:29.227Z,12.07
2023-03-26T20:05:56.390Z,11.80
2023-03-26T20:08:27.069Z,11.92
2023-03-26T20:10:56.554Z,11.56
2023-03-26T20:13:23.373Z,11.77
2023-03-26T20:16:07.515Z,11.74
2023-03-26T20:18:37.628Z,11.57
2023-03-26T20:21:12.280Z,11.56
2023-03-26T20:23:40.732Z,11.77
2023-03-26T20:26:12.082Z,11.40
2023-03-26T20:28:47.492Z,11.02
2023-03-26T20:31:26.235Z,11.24
2023-03-26T20:33:54.207Z,11.32
2023-03-26T20:36:34.008Z,11.14
2023-03-26T20:39:05.974Z,11.08
2023-03-26T20:45:29.825Z,11.41
2023-03-26T20:48:00.451Z,11.02
2023-03-26T20:50:50.781Z,10.67
2023-03-26T20:53:33.328Z,10.70
2023-03-26T20:56:33.229Z,10.54
2023-03-26T20:59:37.819Z,10.59
2023-03-26T21:02:15.180Z,10.71
2023-03-26T21:04:55.736Z,11.01
2023-03-26T21:08:04.556Z,10.58
2023-03-26T21:18:23.403Z,10.81
2023-03-26T21:28:42.435Z,10.40
2023-03-26T21:34:39.666Z,10.41
2023-03-26T21:37:31.245Z,10.31
2023-03-26T21:40:19.033Z,10.07
2023-03-26T21:43:22.200Z,10.20
2023-03-26T21:46:07.752Z,9.75
2023-03-26T21:49:04.348Z,9.74
2023-03-26T21:51:41.262Z,10.35
2023-03-26T21:54:24.516Z,9.78
2023-03-26T21:57:10.622Z,10.10
2023-03-26T22:00:12.144Z,9.71
2023-03-26T22:02:42.897Z,9.74
2023-03-26T22:05:23.161Z,9.56
2023-03-26T22:08:14.505Z,9.83
2023-03-26T22:10:43.943Z,9.66
2023-03-26T22:13:18.961Z,9.80
2023-03-26T22:18:34.674Z,9.39
2023-03-26T22:21:04.179Z,9.66
2023-03-26T22:23:45.985Z,9.33
2023-03-26T22:26:15.640Z,9.49
2023-03-26T22:28:49.342Z,9.40
2023-03-26T22:31:53.926Z,9.24
2023-03-26T22:34:36.770Z,9.39
2023-03-26T22:41:58.606Z,9.16
2023-03-26T22:44:23.540Z,9.12
2023-03-26T22:46:54.426Z,8.97
2023-03-26T22:49:21.374Z,8.84
2023-03-26T22:51:48.241Z,8.97
2023-03-26T22:54:14.964Z,8.99
2023-03-26T22:56:41.712Z,9.26
2023-03-26T22:59:08.688Z,8.99
2023-03-26T23:01:36.142Z,8.79
2023-03-26T23:04:03.094Z,8.94
2023-03-26T23:06:29.925Z,8.68
2023-03-26T23:08:57.067Z,8.65
2023-03-26T23:11:23.980Z,8.49
2023-03-26T23:13:51.272Z,8.68
2023-03-26T23:16:19.179Z,8.25
2023-03-26T23:18:46.112Z,8.40
2023-03-26T23:21:15.213Z,8.26
2023-03-26T23:23:42.232Z,8.18
2023-03-26T23:26:08.913Z,8.24
2023-03-26T23:28:35.950Z,8.19
2023-03-26T23:31:05.720Z,8.21
2023-03-26T23:33:35.400Z,8.27
2023-03-26T23:36:08.736Z,8.06
2023-03-26T23:38:43.591Z,8.23
2023-03-26T23:41:14.840Z,8.24
2023-03-26T23:43:54.807Z,8.03
2023-03-26T23:46:33.107Z,7.92
2023-03-26T23:49:02.333Z,7.87
2023-03-26T23:51:32.733Z,7.65
2023-03-26T23:54:00.530Z,7.73
2023-03-26T23:56:30.301Z,7.97
2023-03-26T23:58:57.375Z,7.88
